sensor_id;sensor_type;location;lat;lon;timestamp;P1;durP1;ratioP1;P2;durP2;ratioP2
70169;SDS011;57543;45.442;9.212;2024-02-23T00:00:30;21.88;;;10.93;;
70169;SDS011;57543;45.442;9.212;2024-02-23T00:03:34;21.30;;;11.63;;
70169;SDS011;57543;45.442;9.212;2024-02-23T00:06:40;19.00;;;10.75;;
70169;SDS011;57543;45.442;9.212;2024-02-23T00:09:44;20.15;;;11.43;;
70169;SDS011;57543;45.442;9.212;2024-02-23T00:12:47;18.00;;;11.25;;
70169;SDS011;57543;45.442;9.212;2024-02-23T00:15:54;21.42;;;12.18;;
70169;SDS011;57543;45.442;9.212;2024-02-23T00:19:00;19.10;;;10.70;;
70169;SDS011;57543;45.442;9.212;2024-02-23T00:22:03;21.13;;;10.88;;
70169;SDS011;57543;45.442;9.212;2024-02-23T00:25:07;20.08;;;11.70;;
70169;SDS011;57543;45.442;9.212;2024-02-23T00:28:11;18.73;;;10.90;;
70169;SDS011;57543;45.442;9.212;2024-02-23T00:31:25;19.17;;;11.10;;
70169;SDS011;57543;45.442;9.212;2024-02-23T00:34:35;20.47;;;10.90;;
70169;SDS011;57543;45.442;9.212;2024-02-23T00:37:41;21.13;;;10.60;;
70169;SDS011;57543;45.442;9.212;2024-02-23T00:40:45;16.33;;;10.35;;
70169;SDS011;57543;45.442;9.212;2024-02-23T00:43:48;18.48;;;10.02;;
70169;SDS011;57543;45.442;9.212;2024-02-23T00:46:51;17.00;;;9.45;;
70169;SDS011;57543;45.442;9.212;2024-02-23T00:49:55;15.37;;;9.00;;
70169;SDS011;57543;45.442;9.212;2024-02-23T00:53:05;14.50;;;8.98;;
70169;SDS011;57543;45.442;9.212;2024-02-23T00:56:18;16.80;;;8.90;;
70169;SDS011;57543;45.442;9.212;2024-02-23T00:59:22;15.60;;;8.00;;
70169;SDS011;57543;45.442;9.212;2024-02-23T01:02:26;13.00;;;7.68;;
70169;SDS011;57543;45.442;9.212;2024-02-23T01:05:33;12.70;;;7.80;;
70169;SDS011;57543;45.442;9.212;2024-02-23T01:08:39;13.68;;;7.22;;
70169;SDS011;57543;45.442;9.212;2024-02-23T01:11:43;14.35;;;7.38;;
70169;SDS011;57543;45.442;9.212;2024-02-23T01:14:50;11.10;;;6.80;;
70169;SDS011;57543;45.442;9.212;2024-02-23T01:17:56;13.48;;;7.30;;
70169;SDS011;57543;45.442;9.212;2024-02-23T01:20:59;12.03;;;6.30;;
70169;SDS011;57543;45.442;9.212;2024-02-23T01:24:03;12.48;;;6.68;;
70169;SDS011;57543;45.442;9.212;2024-02-23T01:27:07;11.25;;;6.82;;
70169;SDS011;57543;45.442;9.212;2024-02-23T01:30:12;11.93;;;6.70;;
70169;SDS011;57543;45.442;9.212;2024-02-23T01:33:15;11.88;;;7.03;;
70169;SDS011;57543;45.442;9.212;2024-02-23T01:36:19;11.17;;;6.73;;
70169;SDS011;57543;45.442;9.212;2024-02-23T01:39:23;12.10;;;6.95;;
70169;SDS011;57543;45.442;9.212;2024-02-23T01:42:30;11.90;;;6.63;;
70169;SDS011;57543;45.442;9.212;2024-02-23T01:45:37;11.30;;;6.20;;
70169;SDS011;57543;45.442;9.212;2024-02-23T01:48:43;11.43;;;6.20;;
70169;SDS011;57543;45.442;9.212;2024-02-23T01:51:49;14.83;;;6.70;;
70169;SDS011;57543;45.442;9.212;2024-02-23T01:54:54;10.23;;;5.68;;
70169;SDS011;57543;45.442;9.212;2024-02-23T01:57:59;9.98;;;5.90;;
70169;SDS011;57543;45.442;9.212;2024-02-23T02:01:03;10.45;;;6.10;;
70169;SDS011;57543;45.442;9.212;2024-02-23T02:04:06;9.43;;;6.07;;
70169;SDS011;57543;45.442;9.212;2024-02-23T02:07:13;9.43;;;5.17;;
70169;SDS011;57543;45.442;9.212;2024-02-23T02:10:17;9.45;;;5.45;;
70169;SDS011;57543;45.442;9.212;2024-02-23T02:13:21;8.63;;;5.18;;
70169;SDS011;57543;45.442;9.212;2024-02-23T02:16:25;8.75;;;5.40;;
70169;SDS011;57543;45.442;9.212;2024-02-23T02:19:29;8.93;;;4.63;;
70169;SDS011;57543;45.442;9.212;2024-02-23T02:22:32;8.23;;;4.60;;
70169;SDS011;57543;45.442;9.212;2024-02-23T02:25:36;6.30;;;3.95;;
70169;SDS011;57543;45.442;9.212;2024-02-23T02:28:40;6.93;;;3.95;;
70169;SDS011;57543;45.442;9.212;2024-02-23T02:31:50;7.07;;;3.90;;
70169;SDS011;57543;45.442;9.212;2024-02-23T02:34:58;7.32;;;3.95;;
70169;SDS011;57543;45.442;9.212;2024-02-23T02:38:02;5.80;;;3.40;;
70169;SDS011;57543;45.442;9.212;2024-02-23T02:41:06;5.13;;;3.03;;
70169;SDS011;57543;45.442;9.212;2024-02-23T02:44:11;5.97;;;3.63;;
70169;SDS011;57543;45.442;9.212;2024-02-23T02:47:16;5.53;;;3.15;;
70169;SDS011;57543;45.442;9.212;2024-02-23T02:50:20;5.47;;;2.83;;
70169;SDS011;57543;45.442;9.212;2024-02-23T02:53:24;5.33;;;3.03;;
70169;SDS011;57543;45.442;9.212;2024-02-23T02:56:28;4.82;;;2.92;;
70169;SDS011;57543;45.442;9.212;2024-02-23T02:59:35;4.57;;;2.75;;
70169;SDS011;57543;45.442;9.212;2024-02-23T03:02:42;5.07;;;2.60;;
70169;SDS011;57543;45.442;9.212;2024-02-23T03:05:45;5.20;;;2.55;;
70169;SDS011;57543;45.442;9.212;2024-02-23T03:08:49;4.70;;;2.60;;
70169;SDS011;57543;45.442;9.212;2024-02-23T03:11:52;4.75;;;2.60;;
70169;SDS011;57543;45.442;9.212;2024-02-23T03:14:55;5.05;;;2.65;;
70169;SDS011;57543;45.442;9.212;2024-02-23T03:17:59;5.05;;;2.45;;
70169;SDS011;57543;45.442;9.212;2024-02-23T03:21:04;4.70;;;2.50;;
70169;SDS011;57543;45.442;9.212;2024-02-23T03:24:09;4.90;;;2.50;;
70169;SDS011;57543;45.442;9.212;2024-02-23T03:27:13;4.82;;;2.47;;
70169;SDS011;57543;45.442;9.212;2024-02-23T03:30:17;5.15;;;2.97;;
70169;SDS011;57543;45.442;9.212;2024-02-23T03:33:21;4.80;;;2.47;;
70169;SDS011;57543;45.442;9.212;2024-02-23T03:36:24;4.88;;;2.47;;
70169;SDS011;57543;45.442;9.212;2024-02-23T03:39:28;4.80;;;2.90;;
70169;SDS011;57543;45.442;9.212;2024-02-23T03:42:32;6.10;;;3.00;;
70169;SDS011;57543;45.442;9.212;2024-02-23T03:45:36;5.45;;;3.05;;
70169;SDS011;57543;45.442;9.212;2024-02-23T03:48:40;5.68;;;2.75;;
70169;SDS011;57543;45.442;9.212;2024-02-23T03:51:43;5.85;;;3.00;;
70169;SDS011;57543;45.442;9.212;2024-02-23T03:54:47;6.83;;;3.43;;
70169;SDS011;57543;45.442;9.212;2024-02-23T03:57:51;5.57;;;3.30;;
70169;SDS011;57543;45.442;9.212;2024-02-23T04:00:55;6.03;;;3.53;;
70169;SDS011;57543;45.442;9.212;2024-02-23T04:04:01;6.32;;;3.53;;
70169;SDS011;57543;45.442;9.212;2024-02-23T04:07:05;6.22;;;3.58;;
70169;SDS011;57543;45.442;9.212;2024-02-23T04:10:08;6.70;;;4.00;;
70169;SDS011;57543;45.442;9.212;2024-02-23T04:13:12;6.03;;;3.40;;
70169;SDS011;57543;45.442;9.212;2024-02-23T04:16:24;7.97;;;3.60;;
70169;SDS011;57543;45.442;9.212;2024-02-23T04:19:30;6.10;;;3.40;;
70169;SDS011;57543;45.442;9.212;2024-02-23T04:22:34;6.32;;;3.60;;
70169;SDS011;57543;45.442;9.212;2024-02-23T04:25:37;7.20;;;3.80;;
70169;SDS011;57543;45.442;9.212;2024-02-23T04:28:43;10.23;;;4.00;;
70169;SDS011;57543;45.442;9.212;2024-02-23T04:31:49;5.32;;;3.10;;
70169;SDS011;57543;45.442;9.212;2024-02-23T04:34:53;5.90;;;3.30;;
70169;SDS011;57543;45.442;9.212;2024-02-23T04:37:56;6.90;;;3.78;;
70169;SDS011;57543;45.442;9.212;2024-02-23T04:41:02;7.17;;;3.70;;
70169;SDS011;57543;45.442;9.212;2024-02-23T04:44:07;7.45;;;3.55;;
70169;SDS011;57543;45.442;9.212;2024-02-23T04:47:10;5.47;;;3.42;;
70169;SDS011;57543;45.442;9.212;2024-02-23T04:50:14;7.53;;;3.63;;
70169;SDS011;57543;45.442;9.212;2024-02-23T04:53:18;6.85;;;3.72;;
70169;SDS011;57543;45.442;9.212;2024-02-23T04:56:25;8.57;;;4.60;;
70169;SDS011;57543;45.442;9.212;2024-02-23T04:59:28;6.28;;;3.78;;
70169;SDS011;57543;45.442;9.212;2024-02-23T05:02:33;7.10;;;4.07;;
70169;SDS011;57543;45.442;9.212;2024-02-23T05:05:38;7.93;;;3.85;;
70169;SDS011;57543;45.442;9.212;2024-02-23T05:08:45;5.43;;;3.63;;
70169;SDS011;57543;45.442;9.212;2024-02-23T05:11:49;6.90;;;3.60;;
70169;SDS011;57543;45.442;9.212;2024-02-23T05:15:01;7.28;;;3.90;;
70169;SDS011;57543;45.442;9.212;2024-02-23T05:18:06;8.05;;;4.30;;
70169;SDS011;57543;45.442;9.212;2024-02-23T05:21:10;6.45;;;3.90;;
70169;SDS011;57543;45.442;9.212;2024-02-23T05:24:14;9.57;;;4.40;;
70169;SDS011;57543;45.442;9.212;2024-02-23T05:27:18;7.67;;;3.90;;
70169;SDS011;57543;45.442;9.212;2024-02-23T05:30:22;8.10;;;4.28;;
70169;SDS011;57543;45.442;9.212;2024-02-23T05:33:28;7.95;;;4.15;;
70169;SDS011;57543;45.442;9.212;2024-02-23T05:36:31;6.63;;;4.10;;
70169;SDS011;57543;45.442;9.212;2024-02-23T05:39:40;8.98;;;5.05;;
70169;SDS011;57543;45.442;9.212;2024-02-23T05:42:44;8.23;;;4.80;;
70169;SDS011;57543;45.442;9.212;2024-02-23T05:45:50;7.88;;;4.15;;
70169;SDS011;57543;45.442;9.212;2024-02-23T05:48:53;8.18;;;4.82;;
70169;SDS011;57543;45.442;9.212;2024-02-23T05:51:57;7.80;;;4.70;;
70169;SDS011;57543;45.442;9.212;2024-02-23T05:55:01;8.02;;;4.90;;
70169;SDS011;57543;45.442;9.212;2024-02-23T05:58:07;7.57;;;4.67;;
70169;SDS011;57543;45.442;9.212;2024-02-23T06:01:11;7.88;;;4.82;;
70169;SDS011;57543;45.442;9.212;2024-02-23T06:04:15;7.25;;;4.65;;
70169;SDS011;57543;45.442;9.212;2024-02-23T06:07:19;7.85;;;4.80;;
70169;SDS011;57543;45.442;9.212;2024-02-23T06:10:24;7.80;;;5.00;;
70169;SDS011;57543;45.442;9.212;2024-02-23T06:13:30;7.10;;;5.00;;
70169;SDS011;57543;45.442;9.212;2024-02-23T06:16:34;8.33;;;5.13;;
70169;SDS011;57543;45.442;9.212;2024-02-23T06:19:38;8.88;;;5.20;;
70169;SDS011;57543;45.442;9.212;2024-02-23T06:22:41;8.73;;;5.60;;
70169;SDS011;57543;45.442;9.212;2024-02-23T06:25:45;9.85;;;5.80;;
70169;SDS011;57543;45.442;9.212;2024-02-23T06:28:48;8.33;;;5.70;;
70169;SDS011;57543;45.442;9.212;2024-02-23T06:31:55;8.38;;;5.35;;
70169;SDS011;57543;45.442;9.212;2024-02-23T06:35:01;8.65;;;5.30;;
70169;SDS011;57543;45.442;9.212;2024-02-23T06:38:06;8.63;;;5.38;;
70169;SDS011;57543;45.442;9.212;2024-02-23T06:41:13;10.35;;;5.63;;
70169;SDS011;57543;45.442;9.212;2024-02-23T06:44:17;8.33;;;5.27;;
70169;SDS011;57543;45.442;9.212;2024-02-23T06:47:21;9.52;;;5.38;;
70169;SDS011;57543;45.442;9.212;2024-02-23T06:50:25;7.97;;;5.40;;
70169;SDS011;57543;45.442;9.212;2024-02-23T06:53:29;6.80;;;4.53;;
70169;SDS011;57543;45.442;9.212;2024-02-23T06:56:32;8.02;;;5.20;;
70169;SDS011;57543;45.442;9.212;2024-02-23T06:59:37;7.57;;;4.80;;
70169;SDS011;57543;45.442;9.212;2024-02-23T07:02:41;6.88;;;4.45;;
70169;SDS011;57543;45.442;9.212;2024-02-23T07:05:44;7.55;;;4.70;;
70169;SDS011;57543;45.442;9.212;2024-02-23T07:08:48;7.28;;;4.75;;
70169;SDS011;57543;45.442;9.212;2024-02-23T07:11:53;7.78;;;5.25;;
70169;SDS011;57543;45.442;9.212;2024-02-23T07:14:56;6.97;;;4.30;;
70169;SDS011;57543;45.442;9.212;2024-02-23T07:17:59;6.80;;;4.90;;
70169;SDS011;57543;45.442;9.212;2024-02-23T07:21:03;7.97;;;4.70;;
70169;SDS011;57543;45.442;9.212;2024-02-23T07:24:07;7.68;;;4.78;;
70169;SDS011;57543;45.442;9.212;2024-02-23T07:27:11;7.85;;;4.63;;
70169;SDS011;57543;45.442;9.212;2024-02-23T07:30:15;7.40;;;4.93;;
70169;SDS011;57543;45.442;9.212;2024-02-23T07:33:20;7.20;;;4.93;;
70169;SDS011;57543;45.442;9.212;2024-02-23T07:36:27;7.65;;;4.60;;
70169;SDS011;57543;45.442;9.212;2024-02-23T07:39:30;6.28;;;3.97;;
70169;SDS011;57543;45.442;9.212;2024-02-23T07:42:33;7.47;;;4.53;;
70169;SDS011;57543;45.442;9.212;2024-02-23T07:45:41;6.83;;;4.37;;
70169;SDS011;57543;45.442;9.212;2024-02-23T07:48:48;7.28;;;4.18;;
70169;SDS011;57543;45.442;9.212;2024-02-23T07:51:52;7.35;;;4.45;;
70169;SDS011;57543;45.442;9.212;2024-02-23T07:54:58;7.22;;;4.38;;
70169;SDS011;57543;45.442;9.212;2024-02-23T07:58:08;7.70;;;5.00;;
70169;SDS011;57543;45.442;9.212;2024-02-23T08:01:17;6.97;;;4.60;;
70169;SDS011;57543;45.442;9.212;2024-02-23T08:04:24;6.50;;;4.00;;
70169;SDS011;57543;45.442;9.212;2024-02-23T08:07:28;6.60;;;4.15;;
70169;SDS011;57543;45.442;9.212;2024-02-23T08:10:33;6.95;;;4.20;;
70169;SDS011;57543;45.442;9.212;2024-02-23T08:13:37;8.00;;;4.55;;
70169;SDS011;57543;45.442;9.212;2024-02-23T08:16:41;7.57;;;4.13;;
70169;SDS011;57543;45.442;9.212;2024-02-23T08:19:44;8.00;;;4.30;;
70169;SDS011;57543;45.442;9.212;2024-02-23T08:22:48;6.07;;;3.53;;
70169;SDS011;57543;45.442;9.212;2024-02-23T08:25:52;5.68;;;3.45;;
70169;SDS011;57543;45.442;9.212;2024-02-23T08:28:57;5.97;;;3.85;;
70169;SDS011;57543;45.442;9.212;2024-02-23T08:32:03;6.53;;;3.30;;
70169;SDS011;57543;45.442;9.212;2024-02-23T08:35:06;6.90;;;3.35;;
70169;SDS011;57543;45.442;9.212;2024-02-23T08:38:11;7.50;;;3.20;;
70169;SDS011;57543;45.442;9.212;2024-02-23T08:41:14;5.68;;;3.08;;
70169;SDS011;57543;45.442;9.212;2024-02-23T08:44:19;4.95;;;2.97;;
70169;SDS011;57543;45.442;9.212;2024-02-23T08:47:22;5.33;;;2.97;;
70169;SDS011;57543;45.442;9.212;2024-02-23T08:50:27;5.65;;;3.30;;
70169;SDS011;57543;45.442;9.212;2024-02-23T08:53:31;5.30;;;3.22;;
70169;SDS011;57543;45.442;9.212;2024-02-23T08:56:38;5.22;;;3.05;;
70169;SDS011;57543;45.442;9.212;2024-02-23T08:59:43;5.95;;;3.03;;
70169;SDS011;57543;45.442;9.212;2024-02-23T09:02:46;5.87;;;2.93;;
70169;SDS011;57543;45.442;9.212;2024-02-23T09:05:50;5.97;;;3.42;;
70169;SDS011;57543;45.442;9.212;2024-02-23T09:08:54;6.38;;;3.40;;
70169;SDS011;57543;45.442;9.212;2024-02-23T09:11:58;7.88;;;4.05;;
70169;SDS011;57543;45.442;9.212;2024-02-23T09:15:09;7.00;;;4.15;;
70169;SDS011;57543;45.442;9.212;2024-02-23T09:18:13;7.53;;;4.17;;
70169;SDS011;57543;45.442;9.212;2024-02-23T09:21:17;6.43;;;4.22;;
70169;SDS011;57543;45.442;9.212;2024-02-23T09:24:22;5.72;;;3.63;;
70169;SDS011;57543;45.442;9.212;2024-02-23T09:27:26;7.78;;;3.75;;
70169;SDS011;57543;45.442;9.212;2024-02-23T09:30:34;7.50;;;4.38;;
70169;SDS011;57543;45.442;9.212;2024-02-23T09:33:37;7.23;;;4.07;;
70169;SDS011;57543;45.442;9.212;2024-02-23T09:36:41;6.40;;;3.83;;
70169;SDS011;57543;45.442;9.212;2024-02-23T09:39:44;7.05;;;4.47;;
70169;SDS011;57543;45.442;9.212;2024-02-23T09:42:50;9.25;;;4.90;;
70169;SDS011;57543;45.442;9.212;2024-02-23T09:46:02;8.70;;;5.10;;
70169;SDS011;57543;45.442;9.212;2024-02-23T09:49:06;8.13;;;5.27;;
70169;SDS011;57543;45.442;9.212;2024-02-23T09:52:14;9.05;;;5.90;;
70169;SDS011;57543;45.442;9.212;2024-02-23T09:55:18;9.32;;;5.93;;
70169;SDS011;57543;45.442;9.212;2024-02-23T09:58:26;8.93;;;5.75;;
70169;SDS011;57543;45.442;9.212;2024-02-23T10:01:32;9.65;;;5.55;;
70169;SDS011;57543;45.442;9.212;2024-02-23T10:04:40;9.97;;;5.53;;
70169;SDS011;57543;45.442;9.212;2024-02-23T10:07:46;8.98;;;5.20;;
70169;SDS011;57543;45.442;9.212;2024-02-23T10:10:50;9.55;;;5.30;;
70169;SDS011;57543;45.442;9.212;2024-02-23T10:13:54;8.25;;;5.03;;
70169;SDS011;57543;45.442;9.212;2024-02-23T10:16:58;8.90;;;5.70;;
70169;SDS011;57543;45.442;9.212;2024-02-23T10:20:05;8.67;;;5.23;;
70169;SDS011;57543;45.442;9.212;2024-02-23T10:23:12;8.30;;;4.85;;
70169;SDS011;57543;45.442;9.212;2024-02-23T10:26:16;8.80;;;5.45;;
70169;SDS011;57543;45.442;9.212;2024-02-23T10:29:23;8.60;;;5.60;;
70169;SDS011;57543;45.442;9.212;2024-02-23T10:32:27;9.20;;;5.30;;
70169;SDS011;57543;45.442;9.212;2024-02-23T10:35:33;10.67;;;6.37;;
70169;SDS011;57543;45.442;9.212;2024-02-23T10:38:44;9.63;;;6.63;;
70169;SDS011;57543;45.442;9.212;2024-02-23T10:42:00;8.77;;;5.85;;
70169;SDS011;57543;45.442;9.212;2024-02-23T10:45:08;10.77;;;6.70;;
70169;SDS011;57543;45.442;9.212;2024-02-23T10:48:14;10.27;;;6.93;;
70169;SDS011;57543;45.442;9.212;2024-02-23T10:51:18;11.67;;;7.50;;
70169;SDS011;57543;45.442;9.212;2024-02-23T10:54:22;13.45;;;8.57;;
70169;SDS011;57543;45.442;9.212;2024-02-23T10:57:26;14.50;;;10.00;;
70169;SDS011;57543;45.442;9.212;2024-02-23T11:00:31;15.07;;;9.80;;
70169;SDS011;57543;45.442;9.212;2024-02-23T11:03:36;16.88;;;10.18;;
70169;SDS011;57543;45.442;9.212;2024-02-23T11:06:41;18.60;;;10.80;;
70169;SDS011;57543;45.442;9.212;2024-02-23T11:09:49;20.13;;;11.15;;
70169;SDS011;57543;45.442;9.212;2024-02-23T11:13:01;19.58;;;11.50;;
70169;SDS011;57543;45.442;9.212;2024-02-23T11:16:08;18.67;;;11.48;;
70169;SDS011;57543;45.442;9.212;2024-02-23T11:19:12;18.92;;;11.50;;
70169;SDS011;57543;45.442;9.212;2024-02-23T11:22:26;17.03;;;11.47;;
70169;SDS011;57543;45.442;9.212;2024-02-23T11:25:33;18.08;;;11.23;;
70169;SDS011;57543;45.442;9.212;2024-02-23T11:28:48;19.88;;;11.20;;
70169;SDS011;57543;45.442;9.212;2024-02-23T11:31:53;20.63;;;12.02;;
70169;SDS011;57543;45.442;9.212;2024-02-23T11:35:03;19.45;;;11.57;;
70169;SDS011;57543;45.442;9.212;2024-02-23T11:38:06;19.33;;;11.80;;
70169;SDS011;57543;45.442;9.212;2024-02-23T11:41:12;19.80;;;11.60;;
70169;SDS011;57543;45.442;9.212;2024-02-23T11:44:17;18.17;;;11.38;;
70169;SDS011;57543;45.442;9.212;2024-02-23T11:47:25;18.17;;;10.93;;
70169;SDS011;57543;45.442;9.212;2024-02-23T11:50:31;17.52;;;11.38;;
70169;SDS011;57543;45.442;9.212;2024-02-23T11:53:39;18.17;;;10.73;;
70169;SDS011;57543;45.442;9.212;2024-02-23T11:56:42;17.15;;;10.63;;
70169;SDS011;57543;45.442;9.212;2024-02-23T11:59:50;18.02;;;11.38;;
70169;SDS011;57543;45.442;9.212;2024-02-23T12:02:54;17.85;;;12.07;;
70169;SDS011;57543;45.442;9.212;2024-02-23T12:06:01;20.08;;;11.48;;
70169;SDS011;57543;45.442;9.212;2024-02-23T12:09:06;18.70;;;11.80;;
70169;SDS011;57543;45.442;9.212;2024-02-23T12:12:18;19.52;;;11.88;;
70169;SDS011;57543;45.442;9.212;2024-02-23T12:15:24;17.67;;;11.43;;
70169;SDS011;57543;45.442;9.212;2024-02-23T12:18:28;17.83;;;10.73;;
70169;SDS011;57543;45.442;9.212;2024-02-23T12:21:35;17.70;;;11.70;;
70169;SDS011;57543;45.442;9.212;2024-02-23T12:24:40;16.60;;;10.80;;
70169;SDS011;57543;45.442;9.212;2024-02-23T12:27:53;18.48;;;11.35;;
70169;SDS011;57543;45.442;9.212;2024-02-23T12:31:01;16.08;;;11.05;;
70169;SDS011;57543;45.442;9.212;2024-02-23T12:34:05;17.33;;;10.63;;
70169;SDS011;57543;45.442;9.212;2024-02-23T12:37:14;18.00;;;10.90;;
70169;SDS011;57543;45.442;9.212;2024-02-23T12:40:19;15.60;;;9.87;;
70169;SDS011;57543;45.442;9.212;2024-02-23T12:43:23;16.33;;;10.32;;
70169;SDS011;57543;45.442;9.212;2024-02-23T12:46:34;14.93;;;9.73;;
70169;SDS011;57543;45.442;9.212;2024-02-23T12:49:41;13.07;;;9.05;;
70169;SDS011;57543;45.442;9.212;2024-02-23T12:52:46;14.82;;;9.52;;
70169;SDS011;57543;45.442;9.212;2024-02-23T12:55:52;15.73;;;9.67;;
70169;SDS011;57543;45.442;9.212;2024-02-23T12:58:56;15.95;;;10.05;;
70169;SDS011;57543;45.442;9.212;2024-02-23T13:02:03;14.85;;;9.23;;
70169;SDS011;57543;45.442;9.212;2024-02-23T13:05:08;14.27;;;9.38;;
70169;SDS011;57543;45.442;9.212;2024-02-23T13:08:12;14.20;;;9.85;;
70169;SDS011;57543;45.442;9.212;2024-02-23T13:11:15;15.20;;;9.70;;
70169;SDS011;57543;45.442;9.212;2024-02-23T13:14:22;14.93;;;10.13;;
70169;SDS011;57543;45.442;9.212;2024-02-23T13:17:26;16.77;;;10.68;;
70169;SDS011;57543;45.442;9.212;2024-02-23T13:20:31;14.75;;;9.70;;
70169;SDS011;57543;45.442;9.212;2024-02-23T13:23:34;17.20;;;10.63;;
70169;SDS011;57543;45.442;9.212;2024-02-23T13:26:39;16.93;;;10.20;;
70169;SDS011;57543;45.442;9.212;2024-02-23T13:29:44;15.25;;;9.82;;
70169;SDS011;57543;45.442;9.212;2024-02-23T13:32:49;15.38;;;10.07;;
70169;SDS011;57543;45.442;9.212;2024-02-23T13:35:54;16.17;;;10.23;;
70169;SDS011;57543;45.442;9.212;2024-02-23T13:39:06;16.50;;;9.77;;
70169;SDS011;57543;45.442;9.212;2024-02-23T13:42:10;16.47;;;10.73;;
70169;SDS011;57543;45.442;9.212;2024-02-23T13:45:13;15.35;;;9.85;;
70169;SDS011;57543;45.442;9.212;2024-02-23T13:48:17;16.83;;;10.82;;
70169;SDS011;57543;45.442;9.212;2024-02-23T13:51:22;22.52;;;11.48;;
70169;SDS011;57543;45.442;9.212;2024-02-23T13:54:25;17.15;;;10.80;;
70169;SDS011;57543;45.442;9.212;2024-02-23T13:57:29;14.90;;;9.63;;
70169;SDS011;57543;45.442;9.212;2024-02-23T14:00:35;16.73;;;10.55;;
70169;SDS011;57543;45.442;9.212;2024-02-23T14:03:42;15.35;;;10.65;;
70169;SDS011;57543;45.442;9.212;2024-02-23T14:06:45;17.65;;;10.63;;
70169;SDS011;57543;45.442;9.212;2024-02-23T14:09:49;17.58;;;11.25;;
70169;SDS011;57543;45.442;9.212;2024-02-23T14:12:52;18.37;;;11.43;;
70169;SDS011;57543;45.442;9.212;2024-02-23T14:15:56;20.25;;;11.57;;
70169;SDS011;57543;45.442;9.212;2024-02-23T14:19:00;18.05;;;11.50;;
70169;SDS011;57543;45.442;9.212;2024-02-23T14:22:09;18.02;;;10.75;;
70169;SDS011;57543;45.442;9.212;2024-02-23T14:25:16;18.77;;;10.77;;
70169;SDS011;57543;45.442;9.212;2024-02-23T14:28:20;17.63;;;10.47;;
70169;SDS011;57543;45.442;9.212;2024-02-23T14:31:23;15.68;;;9.68;;
70169;SDS011;57543;45.442;9.212;2024-02-23T14:34:26;23.00;;;11.57;;
70169;SDS011;57543;45.442;9.212;2024-02-23T14:37:30;16.55;;;10.18;;
70169;SDS011;57543;45.442;9.212;2024-02-23T14:40:34;18.67;;;11.18;;
70169;SDS011;57543;45.442;9.212;2024-02-23T14:43:37;21.30;;;11.47;;
70169;SDS011;57543;45.442;9.212;2024-02-23T14:46:40;19.77;;;11.20;;
70169;SDS011;57543;45.442;9.212;2024-02-23T14:49:46;17.80;;;10.68;;
70169;SDS011;57543;45.442;9.212;2024-02-23T14:52:52;18.50;;;10.77;;
70169;SDS011;57543;45.442;9.212;2024-02-23T14:55:57;17.58;;;10.32;;
70169;SDS011;57543;45.442;9.212;2024-02-23T14:59:03;17.67;;;10.13;;
70169;SDS011;57543;45.442;9.212;2024-02-23T15:02:09;16.77;;;9.93;;
70169;SDS011;57543;45.442;9.212;2024-02-23T15:05:17;16.30;;;10.00;;
70169;SDS011;57543;45.442;9.212;2024-02-23T15:08:21;14.55;;;8.75;;
70169;SDS011;57543;45.442;9.212;2024-02-23T15:11:24;13.50;;;8.40;;
70169;SDS011;57543;45.442;9.212;2024-02-23T15:14:28;13.90;;;8.60;;
70169;SDS011;57543;45.442;9.212;2024-02-23T15:17:33;14.68;;;8.05;;
70169;SDS011;57543;45.442;9.212;2024-02-23T15:20:37;15.63;;;8.77;;
70169;SDS011;57543;45.442;9.212;2024-02-23T15:23:43;15.23;;;8.82;;
70169;SDS011;57543;45.442;9.212;2024-02-23T15:26:58;14.90;;;8.85;;
70169;SDS011;57543;45.442;9.212;2024-02-23T15:30:04;15.90;;;9.30;;
70169;SDS011;57543;45.442;9.212;2024-02-23T15:33:11;16.23;;;9.57;;
70169;SDS011;57543;45.442;9.212;2024-02-23T15:36:17;14.18;;;8.20;;
70169;SDS011;57543;45.442;9.212;2024-02-23T15:39:23;14.77;;;8.70;;
70169;SDS011;57543;45.442;9.212;2024-02-23T15:42:30;15.68;;;8.98;;
70169;SDS011;57543;45.442;9.212;2024-02-23T15:45:36;16.23;;;9.13;;
70169;SDS011;57543;45.442;9.212;2024-02-23T15:48:39;17.83;;;10.05;;
70169;SDS011;57543;45.442;9.212;2024-02-23T15:51:45;14.10;;;8.57;;
70169;SDS011;57543;45.442;9.212;2024-02-23T15:54:50;13.00;;;8.35;;
70169;SDS011;57543;45.442;9.212;2024-02-23T15:57:54;13.40;;;8.10;;
70169;SDS011;57543;45.442;9.212;2024-02-23T16:00:58;13.80;;;8.13;;
70169;SDS011;57543;45.442;9.212;2024-02-23T16:04:03;13.98;;;8.05;;
70169;SDS011;57543;45.442;9.212;2024-02-23T16:07:08;16.17;;;8.52;;
70169;SDS011;57543;45.442;9.212;2024-02-23T16:10:13;15.10;;;9.45;;
70169;SDS011;57543;45.442;9.212;2024-02-23T16:13:20;14.10;;;8.80;;
70169;SDS011;57543;45.442;9.212;2024-02-23T16:16:23;14.87;;;8.87;;
70169;SDS011;57543;45.442;9.212;2024-02-23T16:19:27;15.75;;;9.45;;
70169;SDS011;57543;45.442;9.212;2024-02-23T16:22:42;15.05;;;9.05;;
70169;SDS011;57543;45.442;9.212;2024-02-23T16:25:47;14.15;;;8.38;;
70169;SDS011;57543;45.442;9.212;2024-02-23T16:28:50;14.05;;;8.88;;
70169;SDS011;57543;45.442;9.212;2024-02-23T16:31:54;12.37;;;7.90;;
70169;SDS011;57543;45.442;9.212;2024-02-23T16:34:58;13.68;;;7.70;;
70169;SDS011;57543;45.442;9.212;2024-02-23T16:38:01;12.73;;;7.88;;
70169;SDS011;57543;45.442;9.212;2024-02-23T16:41:06;14.48;;;8.38;;
70169;SDS011;57543;45.442;9.212;2024-02-23T16:44:09;15.75;;;8.43;;
70169;SDS011;57543;45.442;9.212;2024-02-23T16:47:16;13.10;;;8.17;;
70169;SDS011;57543;45.442;9.212;2024-02-23T16:50:20;15.05;;;8.38;;
70169;SDS011;57543;45.442;9.212;2024-02-23T16:53:24;15.30;;;8.90;;
70169;SDS011;57543;45.442;9.212;2024-02-23T16:56:28;14.77;;;8.05;;
70169;SDS011;57543;45.442;9.212;2024-02-23T16:59:34;12.85;;;8.15;;
70169;SDS011;57543;45.442;9.212;2024-02-23T17:02:38;16.03;;;8.37;;
70169;SDS011;57543;45.442;9.212;2024-02-23T17:05:44;15.43;;;8.60;;
70169;SDS011;57543;45.442;9.212;2024-02-23T17:08:47;14.63;;;8.75;;
70169;SDS011;57543;45.442;9.212;2024-02-23T17:11:51;16.05;;;8.60;;
70169;SDS011;57543;45.442;9.212;2024-02-23T17:14:57;16.88;;;8.70;;
70169;SDS011;57543;45.442;9.212;2024-02-23T17:18:02;16.00;;;8.80;;
70169;SDS011;57543;45.442;9.212;2024-02-23T17:21:06;15.30;;;9.07;;
70169;SDS011;57543;45.442;9.212;2024-02-23T17:24:13;16.48;;;9.40;;
70169;SDS011;57543;45.442;9.212;2024-02-23T17:27:16;16.42;;;9.85;;
70169;SDS011;57543;45.442;9.212;2024-02-23T17:30:20;17.65;;;9.30;;
70169;SDS011;57543;45.442;9.212;2024-02-23T17:33:27;15.70;;;9.03;;
70169;SDS011;57543;45.442;9.212;2024-02-23T17:36:30;15.93;;;8.60;;
70169;SDS011;57543;45.442;9.212;2024-02-23T17:39:36;14.85;;;8.98;;
70169;SDS011;57543;45.442;9.212;2024-02-23T17:42:42;15.63;;;8.43;;
70169;SDS011;57543;45.442;9.212;2024-02-23T17:45:45;14.77;;;8.60;;
70169;SDS011;57543;45.442;9.212;2024-02-23T17:48:49;14.90;;;9.40;;
70169;SDS011;57543;45.442;9.212;2024-02-23T17:51:53;16.30;;;9.27;;
70169;SDS011;57543;45.442;9.212;2024-02-23T17:54:59;14.85;;;8.43;;
70169;SDS011;57543;45.442;9.212;2024-02-23T17:58:03;14.32;;;8.32;;
70169;SDS011;57543;45.442;9.212;2024-02-23T18:01:07;12.93;;;7.85;;
70169;SDS011;57543;45.442;9.212;2024-02-23T18:04:11;13.67;;;8.40;;
70169;SDS011;57543;45.442;9.212;2024-02-23T18:07:15;14.68;;;8.20;;
70169;SDS011;57543;45.442;9.212;2024-02-23T18:10:19;11.65;;;7.25;;
70169;SDS011;57543;45.442;9.212;2024-02-23T18:13:22;12.85;;;7.72;;
70169;SDS011;57543;45.442;9.212;2024-02-23T18:16:27;11.95;;;7.28;;
70169;SDS011;57543;45.442;9.212;2024-02-23T18:19:31;10.67;;;6.50;;
70169;SDS011;57543;45.442;9.212;2024-02-23T18:22:35;10.25;;;7.22;;